Terminal Aerodrome Forecast
Issued by NWS

Home | Current Version | Previous Version | Text Only | Print | Product List | Glossary Off
Versions: 1 2 3 4 5 6 7 8 9 10 11 12 13 14 15 16 17 18

000
FTUS43 KTOP 220500
TAFMHK
TAF
KMHK 220520Z 2206/2306 36003KT P6SM SKC WS003/04030KT
     FM221000 04003KT P6SM SKC
     FM221500 10006KT P6SM SKC
     FM222000 14011KT P6SM FEW250=

USA.gov is the U.S. government's official web portal to all federal, state and local government web resources and services.